createdAt,value
2023-06-04T00:01:48.219Z,100494.08
2023-06-04T00:04:15.941Z,100495.52
2023-06-04T00:06:43.374Z,100499.54
2023-06-04T00:09:11.149Z,100499.16
2023-06-04T00:11:38.645Z,100496.06
2023-06-04T00:14:06.036Z,100498.92
2023-06-04T00:16:36.486Z,100499.77
2023-06-04T00:19:03.962Z,100501.17
2023-06-04T00:21:31.297Z,100504.75
2023-06-04T00:23:58.957Z,100506.14
2023-06-04T00:26:26.666Z,100505.41
2023-06-04T00:28:55.804Z,100504.27
2023-06-04T00:31:23.306Z,100506.45
2023-06-04T00:33:50.724Z,100509.58
2023-06-04T00:36:18.093Z,100510.38
2023-06-04T00:38:45.621Z,100508.49
2023-06-04T00:41:13.503Z,100509.17
2023-06-04T00:43:40.971Z,100510.95
2023-06-04T00:46:08.474Z,100509.26
2023-06-04T00:48:38.177Z,100510.03
2023-06-04T00:51:05.973Z,100507.30
2023-06-04T00:53:33.937Z,100509.94
2023-06-04T00:56:01.253Z,100507.98
2023-06-04T00:58:28.747Z,100510.89
2023-06-04T01:00:56.394Z,100512.42
2023-06-04T01:03:24.081Z,100514.89
2023-06-04T01:06:05.505Z,100519.83
2023-06-04T01:09:29.977Z,100515.38
2023-06-04T01:12:00.460Z,100515.46
2023-06-04T01:14:27.998Z,100514.83
2023-06-04T01:17:19.296Z,100514.08
2023-06-04T01:20:24.303Z,100516.45
2023-06-04T01:22:57.798Z,100518.67
2023-06-04T01:25:35.065Z,100521.17
2023-06-04T01:28:04.460Z,100519.45
2023-06-04T01:30:33.645Z,100519.05
2023-06-04T01:33:01.565Z,100523.89
2023-06-04T01:35:29.565Z,100524.55
2023-06-04T01:37:57.259Z,100521.89
2023-06-04T01:40:24.891Z,100523.48
2023-06-04T01:42:52.408Z,100525.17
2023-06-04T01:45:19.784Z,100528.56
2023-06-04T01:47:47.804Z,100531.11
2023-06-04T01:50:15.246Z,100530.89
2023-06-04T01:52:42.600Z,100533.46
2023-06-04T01:55:13.355Z,100535.19
2023-06-04T01:57:41.723Z,100532.84
2023-06-04T02:00:11.559Z,100535.86
2023-06-04T02:02:43.599Z,100534.08
2023-06-04T02:05:11.422Z,100533.43
2023-06-04T02:07:40.026Z,100532.09
2023-06-04T02:10:10.790Z,100536.52
2023-06-04T02:12:39.325Z,100539.21
2023-06-04T02:15:08.553Z,100540.02
2023-06-04T02:17:42.239Z,100536.37
2023-06-04T02:20:10.971Z,100542.02
2023-06-04T02:22:38.886Z,100540.92
2023-06-04T02:25:06.691Z,100545.32
2023-06-04T02:27:34.094Z,100546.19
2023-06-04T02:30:01.581Z,100545.17
2023-06-04T02:32:30.176Z,100545.91
2023-06-04T02:34:57.815Z,100543.81
2023-06-04T02:37:25.744Z,100546.16
2023-06-04T02:39:53.159Z,100544.28
2023-06-04T02:42:20.519Z,100544.17
2023-06-04T02:44:47.850Z,100543.66
2023-06-04T02:47:15.414Z,100542.55
2023-06-04T02:49:43.214Z,100544.86
2023-06-04T02:52:10.576Z,100547.21
2023-06-04T02:54:37.937Z,100549.90
2023-06-04T02:57:05.727Z,100552.91
2023-06-04T02:59:33.723Z,100556.50
2023-06-04T03:02:01.419Z,100558.18
2023-06-04T03:04:35.638Z,100562.15
2023-06-04T03:07:03.764Z,100563.40
2023-06-04T03:09:34.745Z,100564.35
2023-06-04T03:12:03.180Z,100569.54
2023-06-04T03:14:34.292Z,100573.77
2023-06-04T03:17:02.673Z,100578.33
2023-06-04T03:19:30.008Z,100580.38
2023-06-04T03:21:58.117Z,100582.45
2023-06-04T03:24:25.687Z,100580.41
2023-06-04T03:26:53.051Z,100581.22
2023-06-04T03:29:20.445Z,100584.59
2023-06-04T03:31:49.295Z,100581.79
2023-06-04T03:34:16.740Z,100580.71
2023-06-04T03:36:44.371Z,100582.60
2023-06-04T03:39:12.598Z,100582.39
2023-06-04T03:41:40.091Z,100579.34
2023-06-04T03:44:31.132Z,100575.25
2023-06-04T03:47:23.928Z,100575.92
2023-06-04T03:49:51.614Z,100575.22
2023-06-04T03:52:19.843Z,100574.99
2023-06-04T03:54:47.480Z,100572.38
2023-06-04T03:57:14.938Z,100573.20
2023-06-04T03:59:42.322Z,100568.77
2023-06-04T04:02:10.022Z,100569.60
2023-06-04T04:04:40.560Z,100568.45
2023-06-04T04:07:08.847Z,100569.03
2023-06-04T04:09:37.298Z,100569.32
2023-06-04T04:12:05.518Z,100575.41
2023-06-04T04:14:34.253Z,100579.54
2023-06-04T04:17:02.718Z,100584.69
2023-06-04T04:19:32.192Z,100587.36
2023-06-04T04:21:59.891Z,100591.73
2023-06-04T04:24:28.381Z,100594.05
2023-06-04T04:27:00.103Z,100596.86
2023-06-04T04:29:28.852Z,100592.55
2023-06-04T04:31:57.584Z,100594.91
2023-06-04T04:34:27.530Z,100592.30
2023-06-04T04:36:55.270Z,100592.51
2023-06-04T04:39:24.282Z,100592.88
2023-06-04T04:41:52.773Z,100594.16
2023-06-04T04:44:20.933Z,100596.92
2023-06-04T04:46:51.453Z,100594.72
2023-06-04T04:49:19.176Z,100596.77
2023-06-04T04:51:46.998Z,100592.50
2023-06-04T04:54:14.872Z,100590.41
2023-06-04T04:56:42.403Z,100590.48
2023-06-04T04:59:09.766Z,100586.91
2023-06-04T05:01:37.246Z,100585.63
2023-06-04T05:04:09.538Z,100584.65
2023-06-04T05:06:39.157Z,100587.88
2023-06-04T05:09:08.706Z,100587.35
2023-06-04T05:11:36.959Z,100585.81
2023-06-04T05:14:05.146Z,100589.29
2023-06-04T05:16:32.900Z,100588.75
2023-06-04T05:19:01.631Z,100589.52
2023-06-04T05:21:30.826Z,100593.16
2023-06-04T05:27:16.786Z,100592.09
2023-06-04T05:29:44.648Z,100593.83
2023-06-04T05:32:12.512Z,100598.21
2023-06-04T05:34:41.008Z,100599.65
2023-06-04T05:37:12.289Z,100597.55
2023-06-04T05:39:40.822Z,100591.82
2023-06-04T05:42:12.709Z,100592.60
2023-06-04T05:44:41.049Z,100593.27
2023-06-04T05:47:09.142Z,100594.75
2023-06-04T05:49:36.866Z,100592.41
2023-06-04T05:52:05.169Z,100592.90
2023-06-04T05:54:34.042Z,100587.50
2023-06-04T05:57:02.081Z,100589.71
2023-06-04T05:59:30.684Z,100593.39
2023-06-04T06:01:58.645Z,100596.44
2023-06-04T06:04:26.895Z,100598.65
2023-06-04T06:06:54.813Z,100600.14
2023-06-04T06:09:22.863Z,100596.14
2023-06-04T06:11:50.731Z,100593.42
2023-06-04T06:14:18.218Z,100600.35
2023-06-04T06:16:46.335Z,100601.73
2023-06-04T06:19:14.302Z,100599.11
2023-06-04T06:21:41.917Z,100595.88
2023-06-04T06:24:09.676Z,100598.48
2023-06-04T06:26:38.328Z,100597.47
2023-06-04T06:29:07.203Z,100600.24
2023-06-04T06:31:34.993Z,100601.34
2023-06-04T06:34:02.699Z,100598.17
2023-06-04T06:36:31.019Z,100599.98
2023-06-04T06:38:58.618Z,100599.95
2023-06-04T06:41:27.312Z,100600.39
2023-06-04T06:43:54.763Z,100605.08
2023-06-04T06:46:22.224Z,100607.15
2023-06-04T06:48:49.889Z,100607.84
2023-06-04T06:51:17.780Z,100605.66
2023-06-04T06:53:45.215Z,100606.27
2023-06-04T06:56:12.677Z,100611.05
2023-06-04T06:58:40.168Z,100611.31
2023-06-04T07:01:07.797Z,100610.71
2023-06-04T07:03:35.707Z,100609.64
2023-06-04T07:06:03.614Z,100611.84
2023-06-04T07:08:30.982Z,100614.32
2023-06-04T07:10:58.998Z,100612.33
2023-06-04T07:13:26.915Z,100611.73
2023-06-04T07:15:54.449Z,100610.67
2023-06-04T07:18:21.925Z,100608.14
2023-06-04T07:20:49.404Z,100610.30
2023-06-04T07:23:24.670Z,100614.10
2023-06-04T07:25:55.738Z,100621.27
2023-06-04T07:28:23.781Z,100619.85
2023-06-04T07:30:51.457Z,100620.52
2023-06-04T07:33:19.246Z,100619.94
2023-06-04T07:35:46.580Z,100616.18
2023-06-04T07:38:14.016Z,100613.78
2023-06-04T07:40:41.621Z,100609.70
2023-06-04T07:43:09.008Z,100609.40
2023-06-04T07:45:36.497Z,100610.67
2023-06-04T07:48:04.529Z,100610.56
2023-06-04T07:50:34.674Z,100608.33
2023-06-04T07:53:03.821Z,100599.40
2023-06-04T07:55:32.955Z,100608.10
2023-06-04T07:58:00.345Z,100608.73
2023-06-04T08:00:27.759Z,100605.55
2023-06-04T08:02:55.286Z,100604.12
2023-06-04T08:05:22.788Z,100603.77
2023-06-04T08:07:50.196Z,100606.90
2023-06-04T08:10:17.700Z,100609.36
2023-06-04T08:12:45.095Z,100610.30
2023-06-04T08:15:13.003Z,100604.66
2023-06-04T08:17:40.534Z,100604.78
2023-06-04T08:20:08.291Z,100604.28
2023-06-04T08:22:36.882Z,100606.20
2023-06-04T08:25:06.005Z,100607.98
2023-06-04T08:27:33.464Z,100604.75
2023-06-04T08:30:01.307Z,100595.83
2023-06-04T08:32:28.975Z,100595.27
2023-06-04T08:34:56.511Z,100596.77
2023-06-04T08:37:26.014Z,100600.93
2023-06-04T08:39:54.209Z,100591.63
2023-06-04T08:42:31.860Z,100594.86
2023-06-04T08:44:59.475Z,100601.80
2023-06-04T08:47:29.826Z,100598.29
2023-06-04T08:50:00.870Z,100595.48
2023-06-04T08:52:28.699Z,100590.17
2023-06-04T08:54:56.904Z,100589.32
2023-06-04T08:57:24.478Z,100594.05
2023-06-04T08:59:51.902Z,100589.57
2023-06-04T09:02:19.432Z,100589.26
2023-06-04T09:04:47.101Z,100592.95
2023-06-04T09:07:14.755Z,100591.89
2023-06-04T09:09:44.188Z,100586.84
2023-06-04T09:12:13.056Z,100577.51
2023-06-04T09:14:40.552Z,100567.75
2023-06-04T09:17:08.027Z,100563.25
2023-06-04T09:19:35.590Z,100563.87
2023-06-04T09:22:04.012Z,100567.80
2023-06-04T09:24:42.980Z,100568.14
2023-06-04T09:27:15.421Z,100564.00
2023-06-04T09:29:52.580Z,100570.38
2023-06-04T09:32:27.893Z,100562.20
2023-06-04T09:34:59.776Z,100552.96
2023-06-04T09:37:28.023Z,100550.78
2023-06-04T09:39:58.611Z,100551.39
2023-06-04T09:42:26.080Z,100544.11
2023-06-04T09:44:53.609Z,100540.60
2023-06-04T09:47:21.761Z,100544.91
2023-06-04T09:49:52.514Z,100546.73
2023-06-04T09:52:22.399Z,100545.54
2023-06-04T09:54:49.883Z,100539.27
2023-06-04T09:57:20.585Z,100536.54
2023-06-04T09:59:50.887Z,100535.77
2023-06-04T10:02:22.594Z,100529.94
2023-06-04T10:04:59.613Z,100526.64
2023-06-04T10:07:27.424Z,100518.83
2023-06-04T10:09:54.895Z,100516.15
2023-06-04T10:12:31.553Z,100517.15
2023-06-04T10:15:17.600Z,100514.55
2023-06-04T10:17:45.010Z,100507.69
2023-06-04T10:20:12.477Z,100499.67
2023-06-04T10:22:40.060Z,100503.58
2023-06-04T10:25:08.061Z,100507.52
2023-06-04T10:27:37.180Z,100501.61
2023-06-04T10:30:06.762Z,100502.09
2023-06-04T10:32:37.571Z,100502.27
2023-06-04T10:35:09.311Z,100498.27
2023-06-04T10:37:37.141Z,100499.34
2023-06-04T10:40:07.286Z,100494.68
2023-06-04T10:42:43.059Z,100487.48
2023-06-04T10:45:13.640Z,100484.02
2023-06-04T10:47:42.426Z,100478.77
2023-06-04T10:50:14.876Z,100478.61
2023-06-04T10:52:54.815Z,100476.79
2023-06-04T10:55:22.482Z,100484.23
2023-06-04T10:57:58.617Z,100482.02
2023-06-04T11:00:55.559Z,100475.64
2023-06-04T11:03:23.140Z,100469.05
2023-06-04T11:05:51.830Z,100459.38
2023-06-04T11:08:29.935Z,100458.33
2023-06-04T11:10:57.347Z,100455.23
2023-06-04T11:13:27.082Z,100450.30
2023-06-04T11:15:54.990Z,100445.86
2023-06-04T11:18:25.253Z,100437.93
2023-06-04T11:21:02.978Z,100441.48
2023-06-04T11:23:30.610Z,100431.48
2023-06-04T11:25:59.445Z,100434.09
2023-06-04T11:28:26.970Z,100435.96
2023-06-04T11:31:04.524Z,100437.32
2023-06-04T11:33:45.964Z,100447.16
2023-06-04T11:36:26.327Z,100440.02
2023-06-04T11:38:58.806Z,100438.78
2023-06-04T11:41:31.249Z,100437.92
2023-06-04T11:43:58.879Z,100438.89
2023-06-04T11:46:27.449Z,100438.90
2023-06-04T11:48:55.048Z,100438.73
2023-06-04T11:51:22.594Z,100440.61
2023-06-04T11:53:50.014Z,100436.13
2023-06-04T11:56:17.521Z,100438.31
2023-06-04T11:58:46.808Z,100436.36
2023-06-04T12:01:14.535Z,100438.64
2023-06-04T12:03:42.837Z,100438.16
2023-06-04T12:06:18.532Z,100436.83
2023-06-04T12:08:50.481Z,100432.35
2023-06-04T12:11:36.022Z,100429.20
2023-06-04T12:14:07.187Z,100422.85
2023-06-04T12:16:37.857Z,100423.80
2023-06-04T12:19:08.979Z,100426.19
2023-06-04T12:21:36.532Z,100429.49
2023-06-04T12:24:08.784Z,100422.77
2023-06-04T12:26:38.995Z,100420.31
2023-06-04T12:29:14.605Z,100419.89
2023-06-04T12:31:44.190Z,100420.11
2023-06-04T12:34:12.872Z,100416.68
2023-06-04T12:36:40.425Z,100417.19
2023-06-04T12:39:08.100Z,100418.80
2023-06-04T12:41:35.711Z,100415.79
2023-06-04T12:44:03.301Z,100408.03
2023-06-04T12:46:30.859Z,100403.67
2023-06-04T12:48:58.411Z,100399.65
2023-06-04T12:51:25.974Z,100396.05
2023-06-04T12:53:54.219Z,100395.90
2023-06-04T12:56:21.570Z,100392.83
2023-06-04T12:58:49.269Z,100387.77
2023-06-04T13:01:17.028Z,100389.93
2023-06-04T13:03:44.884Z,100387.93
2023-06-04T13:06:12.563Z,100389.98
2023-06-04T13:08:40.003Z,100390.59
2023-06-04T13:11:07.847Z,100388.66
2023-06-04T13:13:35.788Z,100386.15
2023-06-04T13:16:03.781Z,100380.59
2023-06-04T13:18:31.239Z,100377.27
2023-06-04T13:20:58.675Z,100380.54
2023-06-04T13:23:34.323Z,100381.48
2023-06-04T13:27:09.209Z,100382.73
2023-06-04T13:29:36.713Z,100381.83
2023-06-04T13:32:05.163Z,100381.41
2023-06-04T13:34:33.340Z,100380.16
2023-06-04T13:37:00.858Z,100381.55
2023-06-04T13:39:28.413Z,100382.39
2023-06-04T13:41:55.813Z,100391.63
2023-06-04T13:44:27.418Z,100388.34
2023-06-04T13:46:55.163Z,100389.21
2023-06-04T13:49:22.572Z,100385.52
2023-06-04T13:51:50.174Z,100380.73
2023-06-04T13:54:17.728Z,100379.47
2023-06-04T13:56:45.231Z,100382.67
2023-06-04T13:59:12.754Z,100382.09
2023-06-04T14:01:41.334Z,100377.91
2023-06-04T14:04:08.907Z,100376.77
2023-06-04T14:06:37.371Z,100375.73
2023-06-04T14:09:08.228Z,100370.86
2023-06-04T14:11:36.186Z,100371.92
2023-06-04T14:14:03.688Z,100373.50
2023-06-04T14:16:31.300Z,100378.42
2023-06-04T14:18:58.856Z,100376.96
2023-06-04T14:21:27.445Z,100379.09
2023-06-04T14:23:55.018Z,100383.95
2023-06-04T14:26:23.644Z,100383.92
2023-06-04T14:28:51.027Z,100381.88
2023-06-04T14:31:18.478Z,100380.94
2023-06-04T14:33:45.957Z,100376.54
2023-06-04T14:36:13.383Z,100380.03
2023-06-04T14:38:40.897Z,100372.95
2023-06-04T14:41:08.597Z,100376.67
2023-06-04T14:43:36.472Z,100377.58
2023-06-04T14:46:04.313Z,100382.00
2023-06-04T14:48:31.774Z,100379.40
2023-06-04T14:50:59.215Z,100377.08
2023-06-04T14:53:26.784Z,100379.50
2023-06-04T14:55:54.258Z,100380.77
2023-06-04T14:58:21.740Z,100368.52
2023-06-04T15:00:49.236Z,100373.39
2023-06-04T15:03:16.856Z,100372.21
2023-06-04T15:05:44.679Z,100368.45
2023-06-04T15:08:12.130Z,100368.81
2023-06-04T15:10:39.462Z,100366.64
2023-06-04T15:13:07.002Z,100367.92
2023-06-04T15:15:34.631Z,100368.36
2023-06-04T15:18:02.330Z,100365.57
2023-06-04T15:20:29.964Z,100367.23
2023-06-04T15:22:57.373Z,100363.55
2023-06-04T15:25:24.881Z,100366.52
2023-06-04T15:27:52.322Z,100366.21
2023-06-04T15:30:21.746Z,100354.45
2023-06-04T15:32:49.315Z,100357.90
2023-06-04T15:35:17.038Z,100358.06
2023-06-04T15:37:44.436Z,100355.64
2023-06-04T15:40:12.158Z,100353.16
2023-06-04T15:42:39.628Z,100355.02
2023-06-04T15:45:08.178Z,100351.79
2023-06-04T15:47:35.692Z,100348.85
2023-06-04T15:50:03.542Z,100350.59
2023-06-04T15:52:31.200Z,100349.25
2023-06-04T15:54:58.804Z,100351.61
2023-06-04T15:57:26.753Z,100350.68
2023-06-04T15:59:54.329Z,100349.91
2023-06-04T16:02:21.713Z,100349.48
2023-06-04T16:04:49.099Z,100350.71
2023-06-04T16:07:16.765Z,100347.92
2023-06-04T16:09:44.414Z,100349.73
2023-06-04T16:12:12.021Z,100347.55
2023-06-04T16:14:39.568Z,100345.99
2023-06-04T16:17:07.323Z,100345.18
2023-06-04T16:19:35.042Z,100346.34
2023-06-04T16:22:02.487Z,100342.03
2023-06-04T16:24:31.189Z,100345.41
2023-06-04T16:26:58.680Z,100340.69
2023-06-04T16:29:26.205Z,100338.25
2023-06-04T16:31:53.804Z,100338.20
2023-06-04T16:34:21.221Z,100336.81
2023-06-04T16:36:48.818Z,100338.27
2023-06-04T16:39:16.536Z,100339.66
2023-06-04T16:41:43.993Z,100338.73
2023-06-04T16:44:11.396Z,100335.08
2023-06-04T16:46:38.929Z,100333.76
2023-06-04T16:49:06.356Z,100339.98
2023-06-04T16:51:33.761Z,100337.10
2023-06-04T16:54:01.301Z,100340.51
2023-06-04T16:56:29.012Z,100339.28
2023-06-04T16:58:56.468Z,100341.86
2023-06-04T17:01:24.034Z,100337.30
2023-06-04T17:03:52.924Z,100339.30
2023-06-04T17:06:21.349Z,100341.25
2023-06-04T17:08:48.903Z,100341.69
2023-06-04T17:11:16.298Z,100339.33
2023-06-04T17:13:44.019Z,100339.09
2023-06-04T17:16:11.497Z,100337.86
2023-06-04T17:18:39.163Z,100339.28
2023-06-04T17:21:06.674Z,100341.42
2023-06-04T17:23:34.086Z,100340.11
2023-06-04T17:26:01.932Z,100339.35
2023-06-04T17:28:29.486Z,100341.80
2023-06-04T17:30:57.045Z,100339.36
2023-06-04T17:33:24.574Z,100339.42
2023-06-04T17:35:52.115Z,100339.52
2023-06-04T17:38:19.572Z,100342.13
2023-06-04T17:40:47.042Z,100343.73
2023-06-04T17:43:14.496Z,100344.74
2023-06-04T17:45:42.736Z,100343.95
2023-06-04T17:48:10.176Z,100341.57
2023-06-04T17:50:37.607Z,100338.55
2023-06-04T17:53:05.081Z,100342.43
2023-06-04T17:55:32.466Z,100342.38
2023-06-04T17:57:59.842Z,100338.48
2023-06-04T18:00:27.382Z,100346.63
2023-06-04T18:02:54.789Z,100345.52
2023-06-04T18:05:22.250Z,100350.73
2023-06-04T18:07:51.189Z,100354.48
2023-06-04T18:10:18.661Z,100360.23
2023-06-04T18:12:46.909Z,100357.86
2023-06-04T18:15:17.244Z,100361.01
2023-06-04T18:17:44.776Z,100363.89
2023-06-04T18:20:12.357Z,100362.34
2023-06-04T18:22:40.226Z,100363.98
2023-06-04T18:25:09.140Z,100368.58
2023-06-04T18:27:37.204Z,100371.90
2023-06-04T18:30:05.853Z,100373.02
2023-06-04T18:32:33.453Z,100368.36
2023-06-04T18:35:01.416Z,100371.25
2023-06-04T18:37:29.439Z,100370.77
2023-06-04T18:39:57.122Z,100371.27
2023-06-04T18:42:30.793Z,100373.43
2023-06-04T18:45:01.000Z,100373.76
2023-06-04T18:47:28.680Z,100375.98
2023-06-04T18:49:56.922Z,100376.09
2023-06-04T18:52:24.442Z,100375.86
2023-06-04T18:54:51.828Z,100376.22
2023-06-04T18:57:19.365Z,100378.83
2023-06-04T18:59:46.825Z,100378.14
2023-06-04T19:02:15.374Z,100378.98
2023-06-04T19:04:42.783Z,100383.66
2023-06-04T19:07:10.321Z,100382.86
2023-06-04T19:09:37.931Z,100382.33
2023-06-04T19:12:05.665Z,100382.88
2023-06-04T19:14:34.702Z,100382.32
2023-06-04T19:17:03.412Z,100382.42
2023-06-04T19:19:31.203Z,100385.32
2023-06-04T19:21:59.495Z,100385.45
2023-06-04T19:24:27.107Z,100389.05
2023-06-04T19:26:54.607Z,100390.19
2023-06-04T19:29:21.968Z,100387.92
2023-06-04T19:31:49.621Z,100389.02
2023-06-04T19:34:17.338Z,100386.71
2023-06-04T19:36:44.821Z,100390.27
2023-06-04T19:39:12.236Z,100393.19
2023-06-04T19:41:39.615Z,100395.69
2023-06-04T19:44:07.201Z,100397.73
2023-06-04T19:46:34.662Z,100400.52
2023-06-04T19:49:02.537Z,100400.38
2023-06-04T19:51:30.060Z,100404.72
2023-06-04T19:53:57.752Z,100403.17
2023-06-04T19:56:26.809Z,100402.94
2023-06-04T19:58:54.324Z,100402.24
2023-06-04T20:01:38.380Z,100401.04
2023-06-04T20:04:09.785Z,100400.71
2023-06-04T20:06:37.741Z,100403.37
2023-06-04T20:09:05.598Z,100403.91
2023-06-04T20:11:33.174Z,100402.52
2023-06-04T20:14:02.543Z,100403.05
2023-06-04T20:16:30.948Z,100401.64
2023-06-04T20:18:58.823Z,100405.56
2023-06-04T20:21:26.360Z,100405.84
2023-06-04T20:24:02.238Z,100405.99
2023-06-04T20:26:29.933Z,100407.95
2023-06-04T20:28:57.617Z,100408.66
2023-06-04T20:31:27.411Z,100409.50
2023-06-04T20:33:58.351Z,100408.59
2023-06-04T20:36:26.111Z,100409.41
2023-06-04T20:38:53.736Z,100409.25
2023-06-04T20:41:25.584Z,100410.34
2023-06-04T20:43:54.805Z,100413.36
2023-06-04T20:46:22.414Z,100413.92
2023-06-04T20:48:49.983Z,100413.93
2023-06-04T20:51:17.509Z,100412.56
2023-06-04T20:53:49.042Z,100412.80
2023-06-04T20:56:16.663Z,100408.33
2023-06-04T20:58:44.183Z,100415.04
2023-06-04T21:01:13.083Z,100417.27
2023-06-04T21:03:40.679Z,100419.55
2023-06-04T21:06:08.705Z,100417.33
2023-06-04T21:08:36.792Z,100416.36
2023-06-04T21:11:04.237Z,100417.80
2023-06-04T21:13:31.653Z,100414.83
2023-06-04T21:15:59.085Z,100414.05
2023-06-04T21:18:26.923Z,100416.80
2023-06-04T21:20:54.561Z,100414.54
2023-06-04T21:23:22.515Z,100414.98
2023-06-04T21:25:50.785Z,100415.34
2023-06-04T21:28:18.191Z,100414.33
2023-06-04T21:30:45.557Z,100414.78
2023-06-04T21:33:13.146Z,100414.91
2023-06-04T21:35:40.577Z,100411.33
2023-06-04T21:38:07.979Z,100412.80
2023-06-04T21:40:35.482Z,100413.34
2023-06-04T21:43:02.894Z,100410.55
2023-06-04T21:45:30.583Z,100417.73
2023-06-04T21:47:58.697Z,100418.19
2023-06-04T21:50:26.230Z,100420.05
2023-06-04T21:52:53.824Z,100419.69
2023-06-04T21:55:21.272Z,100422.23
2023-06-04T21:57:48.752Z,100421.61
2023-06-04T22:00:16.977Z,100423.23
2023-06-04T22:02:44.609Z,100424.13
2023-06-04T22:05:12.674Z,100428.35
2023-06-04T22:07:40.274Z,100426.60
2023-06-04T22:10:08.512Z,100424.51
2023-06-04T22:12:35.986Z,100423.92
2023-06-04T22:15:03.955Z,100426.55
2023-06-04T22:17:31.462Z,100428.26
2023-06-04T22:19:59.021Z,100432.16
2023-06-04T22:22:26.401Z,100427.27
2023-06-04T22:24:53.876Z,100428.58
2023-06-04T22:27:21.297Z,100425.66
2023-06-04T22:41:23.579Z,100430.81
2023-06-04T22:43:50.997Z,100433.59
2023-06-04T22:46:18.372Z,100430.77
2023-06-04T22:48:45.866Z,100431.08
2023-06-04T22:51:13.358Z,100434.09
2023-06-04T22:53:41.068Z,100436.70
2023-06-04T22:56:10.465Z,100443.70
2023-06-04T22:58:38.369Z,100448.83
2023-06-04T23:01:05.860Z,100449.73
2023-06-04T23:03:33.745Z,100447.73
2023-06-04T23:06:01.992Z,100444.38
2023-06-04T23:08:29.369Z,100441.96
2023-06-04T23:10:56.753Z,100438.27
2023-06-04T23:13:24.168Z,100441.73
2023-06-04T23:15:51.677Z,100442.30
2023-06-04T23:18:19.209Z,100443.30
2023-06-04T23:20:49.138Z,100440.97
2023-06-04T23:23:16.564Z,100441.75
2023-06-04T23:25:43.934Z,100443.05
2023-06-04T23:28:11.488Z,100444.61
2023-06-04T23:30:38.882Z,100444.55
2023-06-04T23:33:06.412Z,100443.55
2023-06-04T23:35:34.236Z,100444.20
2023-06-04T23:38:02.310Z,100440.38
2023-06-04T23:40:29.797Z,100440.39
2023-06-04T23:42:57.293Z,100438.27
2023-06-04T23:45:24.802Z,100440.75
2023-06-04T23:47:52.574Z,100438.49
2023-06-04T23:50:20.075Z,100437.48
2023-06-04T23:52:47.567Z,100436.30
2023-06-04T23:55:15.132Z,100440.36
2023-06-04T23:57:42.783Z,100442.67
